Teddy Meyer — WDF9635 — position and weather

sailwx.info

Track history (hours):
 
Tides and Currents Weather Stations Pressure Air Temp Water Temp Dewpoint Dewpoint Depression Visibility Wind Speed Wind Dir Waves Ship Positions

Teddy Meyer

Owner: LeBeouf Bros. Towing, LLC, Houma, LA. More information available from US FCC via Universal Licensing System and Coast Guard Vessel Documentation Center.

Last reported at 2015-Sep-01 09:23 UTC. Time now 2015-Sep-02 21:54 UTC.
Position N 29°27' W 094°51'.

; draft 3 m.

MMSI: 367507220.

Date/timePositionNaut miles runAvg speedWind from/ knotsBaromVisibWave heightAir tempDewpointWater temp
2015-Sep-01 09:23N 29°27' W 094°51'7 8.6
2015-Sep-01 08:34N 29°34' W 094°55'9 8.5
2015-Sep-01 07:33N 29°41' W 094°59'7 7.0
2015-Sep-01 06:33N 29°45' W 095°06'1 0.8
2015-Sep-01 05:24N 29°45' W 095°06'0 0.0
2015-Aug-31 21:33N 29°45' W 095°06'0 0.0
2015-Aug-31 04:21N 29°45' W 095°06'0 0.0
2015-Aug-31 03:30N 29°45' W 095°06'0 0.0
2015-Aug-31 02:28N 29°45' W 095°06'0 0.0
2015-Aug-31 01:22N 29°45' W 095°06'0 0.0
2015-Aug-31 00:33N 29°45' W 095°06'2 2.4
2015-Aug-30 23:33N 29°47' W 095°05'1 1.0
2015-Aug-30 22:33N 29°47' W 095°04'0 0.1
2015-Aug-30 21:26N 29°47' W 095°04'1 0.1
2015-Aug-29 21:05N 29°46' W 095°05'1 1.1
2015-Aug-29 20:09N 29°47' W 095°04'0 0.0
2015-Aug-29 19:32N 29°47' W 095°04'0 0.0
2015-Aug-29 18:33N 29°47' W 095°04'0 0.0
2015-Aug-29 17:33N 29°47' W 095°04'0 0.0
2015-Aug-29 16:32N 29°47' W 095°04'0 0.3
2015-Aug-29 15:32N 29°47' W 095°04'1 0.2
2015-Aug-29 11:18N 29°46' W 095°05'0 0.0
2015-Aug-29 04:09N 29°46' W 095°05'1 0.8
2015-Aug-29 03:21N 29°46' W 095°04'4 5.5
2015-Aug-29 02:33N 29°42' W 095°01'6 6.5
2015-Aug-29 01:33N 29°37' W 094°57'8 7.1
2015-Aug-29 00:30N 29°30' W 094°52'7 7.1
2015-Aug-28 23:27N 29°24' W 094°49'  
2015-Aug-24 03:03N 29°25' W 094°49'4 8.5
2015-Aug-24 02:33N 29°28' W 094°51'9 8.6
2015-Aug-24 01:33N 29°36' W 094°57'8 8.2
2015-Aug-24 00:33N 29°43' W 095°01'6 5.6
2015-Aug-23 23:33N 29°44' W 095°08'2 0.1
2015-Aug-22 20:30N 29°45' W 095°10'5 4.9
2015-Aug-22 19:31N 29°46' W 095°05'2 1.3
2015-Aug-22 18:22N 29°47' W 095°04'0 0.2
2015-Aug-22 17:33N 29°47' W 095°04'  
Track history (hours):
 
Tides and Currents Weather Stations Pressure Air Temp Water Temp Dewpoint Dewpoint Depression Visibility Wind Speed Wind Dir Waves Ship Positions

Teddy Meyer

Owner: LeBeouf Bros. Towing, LLC, Houma, LA. More information available from US FCC via Universal Licensing System and Coast Guard Vessel Documentation Center.

Last reported at 2015-Sep-01 09:23 UTC. Time now 2015-Sep-02 21:54 UTC.
Position N 29°27' W 094°51'.

; draft 3 m.

MMSI: 367507220.

Date/timePositionNaut miles runAvg speedWind from/ knotsBaromVisibWave heightAir tempDewpointWater temp
2015-Sep-01 09:23N 29°27' W 094°51'7 8.6
2015-Sep-01 08:34N 29°34' W 094°55'9 8.5
2015-Sep-01 07:33N 29°41' W 094°59'7 7.0
2015-Sep-01 06:33N 29°45' W 095°06'1 0.8
2015-Sep-01 05:24N 29°45' W 095°06'0 0.0
2015-Aug-31 21:33N 29°45' W 095°06'0 0.0
2015-Aug-31 04:21N 29°45' W 095°06'0 0.0
2015-Aug-31 03:30N 29°45' W 095°06'0 0.0
2015-Aug-31 02:28N 29°45' W 095°06'0 0.0
2015-Aug-31 01:22N 29°45' W 095°06'0 0.0
2015-Aug-31 00:33N 29°45' W 095°06'2 2.4
2015-Aug-30 23:33N 29°47' W 095°05'1 1.0
2015-Aug-30 22:33N 29°47' W 095°04'0 0.1
2015-Aug-30 21:26N 29°47' W 095°04'1 0.1
2015-Aug-29 21:05N 29°46' W 095°05'1 1.1
2015-Aug-29 20:09N 29°47' W 095°04'0 0.0
2015-Aug-29 19:32N 29°47' W 095°04'0 0.0
2015-Aug-29 18:33N 29°47' W 095°04'0 0.0
2015-Aug-29 17:33N 29°47' W 095°04'0 0.0
2015-Aug-29 16:32N 29°47' W 095°04'0 0.3
2015-Aug-29 15:32N 29°47' W 095°04'1 0.2
2015-Aug-29 11:18N 29°46' W 095°05'0 0.0
2015-Aug-29 04:09N 29°46' W 095°05'1 0.8
2015-Aug-29 03:21N 29°46' W 095°04'4 5.5
2015-Aug-29 02:33N 29°42' W 095°01'6 6.5
2015-Aug-29 01:33N 29°37' W 094°57'8 7.1
2015-Aug-29 00:30N 29°30' W 094°52'7 7.1
2015-Aug-28 23:27N 29°24' W 094°49'  
2015-Aug-24 03:03N 29°25' W 094°49'4 8.5
2015-Aug-24 02:33N 29°28' W 094°51'9 8.6
2015-Aug-24 01:33N 29°36' W 094°57'8 8.2
2015-Aug-24 00:33N 29°43' W 095°01'6 5.6
2015-Aug-23 23:33N 29°44' W 095°08'2 0.1
2015-Aug-22 20:30N 29°45' W 095°10'5 4.9
2015-Aug-22 19:31N 29°46' W 095°05'2 1.3
2015-Aug-22 18:22N 29°47' W 095°04'0 0.2
2015-Aug-22 17:33N 29°47' W 095°04'  

Dump ship's entire track history